aviador You're here:

KFLO Decoded Metar

FLORENCE in SC, USA
Report Time2017-08-18 01:53:00
UTC Time2017-08-18 02:57:54
Flight Rules vfr VFR
Wind170° at 05 kt
W.Decomp.*RWY 19: 4.8 kt HW 1.3 kt LCW
RWY 09: 0.4 kt HW 5.0 kt RCW
W.Rank170° ranks 17
Current wind is below 170° avg. (6.2)
Visibility9999 m
Phenomena:N/A
Clouds:N/A
Expected CloudBase > 400 ft AGL from Temp-Dew spread
CeilingNone
Temp27°C (ISA +12)
Dew Point26°C (94% RH)
Heat Index31.2°C
QNH1015 hPa
Density Alt1,932 ft
Elevation144 ft
Report Wrong Elevation
Raw Report
METAR KFLO 180153Z 17005KT 10SM CLR 27/26 A2998 RMK AO2 SLP149 T02720256=

Extra information for KFLO:More info

Metar Taf Metar & Taf Last 4 Metars F.Rules Stats Wind Profile Meteogram Temp Stats Airport Information Weather charts Add Link Nearby VenuesMetar ALERT Operation Metar Decoded Social comments

AIRNAV info for KFLO